createdAt,value
2023-02-14T00:00:36.700Z,16.57
2023-02-14T00:03:05.316Z,17.80
2023-02-14T00:05:35.206Z,18.23
2023-02-14T00:08:03.651Z,20.10
2023-02-14T00:10:32.149Z,19.57
2023-02-14T00:13:04.506Z,16.40
2023-02-14T00:15:31.997Z,17.53
2023-02-14T00:18:00.945Z,16.23
2023-02-14T00:20:30.418Z,16.23
2023-02-14T00:23:00.944Z,16.00
2023-02-14T00:25:29.518Z,17.60
2023-02-14T00:27:57.944Z,17.57
2023-02-14T00:30:26.581Z,18.73
2023-02-14T00:32:55.180Z,17.93
2023-02-14T00:35:23.648Z,18.53
2023-02-14T00:37:52.093Z,18.00
2023-02-14T00:40:22.120Z,17.10
2023-02-14T00:43:18.201Z,16.37
2023-02-14T00:45:46.728Z,15.73
2023-02-14T00:48:15.176Z,18.00
2023-02-14T00:50:45.864Z,18.97
2023-02-14T00:53:14.575Z,19.33
2023-02-14T00:55:46.445Z,18.93
2023-02-14T00:58:15.017Z,17.33
2023-02-14T01:00:43.526Z,17.80
2023-02-14T01:03:12.311Z,17.90
2023-02-14T01:06:07.036Z,17.43
2023-02-14T01:08:36.134Z,16.93
2023-02-14T01:11:12.005Z,17.50
2023-02-14T01:13:41.090Z,16.90
2023-02-14T01:16:12.992Z,17.13
2023-02-14T01:18:42.013Z,17.43
2023-02-14T01:21:17.913Z,17.57
2023-02-14T01:23:46.773Z,18.47
2023-02-14T01:26:18.032Z,18.47
2023-02-14T01:28:47.292Z,17.60
2023-02-14T01:31:19.367Z,17.93
2023-02-14T01:33:49.975Z,16.77
2023-02-14T01:36:21.915Z,16.27
2023-02-14T01:38:54.621Z,18.13
2023-02-14T01:41:25.968Z,18.03
2023-02-14T01:44:00.218Z,18.40
2023-02-14T01:46:39.015Z,17.63
2023-02-14T01:49:14.760Z,17.53
2023-02-14T01:51:51.996Z,17.53
2023-02-14T01:54:26.441Z,18.10
2023-02-14T01:57:01.581Z,17.33
2023-02-14T01:59:38.739Z,18.27
2023-02-14T02:02:08.431Z,17.40
2023-02-14T02:04:42.998Z,18.80
2023-02-14T02:07:22.035Z,17.50
2023-02-14T02:09:56.017Z,17.63
2023-02-14T02:12:26.100Z,18.47
2023-02-14T02:15:05.457Z,17.23
2023-02-14T02:17:54.081Z,18.43
2023-02-14T02:20:50.943Z,20.70
2023-02-14T02:24:10.085Z,17.83
2023-02-14T02:27:21.592Z,18.33
2023-02-14T02:30:36.660Z,17.40
2023-02-14T02:33:48.769Z,16.97
2023-02-14T02:36:49.105Z,17.23
2023-02-14T02:39:35.778Z,18.30
2023-02-14T02:42:17.682Z,15.63
2023-02-14T02:45:25.094Z,16.63
2023-02-14T02:48:06.201Z,15.90
2023-02-14T02:51:05.174Z,16.70
2023-02-14T02:54:04.760Z,16.60
2023-02-14T02:56:46.912Z,15.90
2023-02-14T02:59:22.309Z,16.57
2023-02-14T03:01:58.734Z,14.87
2023-02-14T03:04:46.548Z,16.57
2023-02-14T03:07:32.858Z,15.23
2023-02-14T03:10:08.862Z,15.13
2023-02-14T03:13:23.155Z,14.60
2023-02-14T03:16:27.954Z,15.67
2023-02-14T03:19:31.482Z,15.03
2023-02-14T03:22:08.592Z,15.67
2023-02-14T03:24:50.920Z,16.03
2023-02-14T03:27:29.795Z,14.97
2023-02-14T03:30:12.165Z,15.43
2023-02-14T03:32:46.239Z,15.03
2023-02-14T03:35:25.604Z,14.90
2023-02-14T03:38:04.950Z,15.37
2023-02-14T03:40:39.060Z,15.63
2023-02-14T03:43:15.157Z,14.97
2023-02-14T03:45:51.630Z,14.80
2023-02-14T03:48:24.925Z,14.30
2023-02-14T03:50:56.331Z,14.30
2023-02-14T03:53:29.420Z,15.53
2023-02-14T03:56:07.315Z,16.30
2023-02-14T03:59:07.786Z,15.33
2023-02-14T04:01:43.405Z,15.30
2023-02-14T04:04:16.046Z,14.23
2023-02-14T04:06:45.131Z,14.33
2023-02-14T04:09:19.616Z,13.60
2023-02-14T04:11:50.417Z,15.50
2023-02-14T04:14:20.303Z,14.77
2023-02-14T04:17:06.048Z,14.97
2023-02-14T04:19:34.543Z,14.60
2023-02-14T04:22:03.035Z,13.67
2023-02-14T04:24:31.525Z,14.10
2023-02-14T04:30:10.089Z,13.87
2023-02-14T04:32:38.552Z,13.27
2023-02-14T04:35:08.003Z,12.87
2023-02-14T04:37:36.926Z,14.80
2023-02-14T04:40:06.331Z,13.03
2023-02-14T04:42:34.787Z,13.87
2023-02-14T04:45:04.299Z,15.20
2023-02-14T04:47:34.340Z,15.07
2023-02-14T04:50:03.184Z,15.73
2023-02-14T04:52:31.666Z,13.00
2023-02-14T04:55:00.045Z,13.50
2023-02-14T04:57:28.684Z,13.33
2023-02-14T04:59:57.338Z,13.57
2023-02-14T05:02:25.783Z,12.10
2023-02-14T05:04:55.692Z,13.43
2023-02-14T05:07:24.103Z,13.57
2023-02-14T05:09:52.563Z,12.80
2023-02-14T05:12:21.438Z,12.77
2023-02-14T05:14:50.010Z,11.83
2023-02-14T05:17:18.522Z,12.87
2023-02-14T05:19:47.066Z,12.63
2023-02-14T05:22:23.620Z,13.63
2023-02-14T05:24:52.086Z,12.33
2023-02-14T05:27:20.536Z,13.10
2023-02-14T05:29:49.070Z,12.93
2023-02-14T05:32:17.619Z,13.50
2023-02-14T05:34:46.027Z,12.03
2023-02-14T05:37:14.572Z,12.80
2023-02-14T05:39:44.391Z,11.93
2023-02-14T05:42:12.796Z,12.97
2023-02-14T05:44:41.204Z,11.87
2023-02-14T05:47:35.218Z,14.07
2023-02-14T05:50:03.797Z,12.60
2023-02-14T05:52:32.240Z,13.07
2023-02-14T05:55:02.155Z,12.77
2023-02-14T05:57:33.477Z,12.50
2023-02-14T06:00:01.977Z,12.80
2023-02-14T06:02:30.485Z,13.10
2023-02-14T06:04:59.116Z,14.30
2023-02-14T06:07:27.691Z,14.70
2023-02-14T06:09:56.104Z,16.37
2023-02-14T06:12:26.133Z,17.10
2023-02-14T06:14:54.708Z,14.87
2023-02-14T06:17:52.954Z,15.37
2023-02-14T06:20:22.619Z,13.67
2023-02-14T06:22:51.538Z,16.90
2023-02-14T06:25:49.762Z,18.00
2023-02-14T06:28:19.636Z,18.50
2023-02-14T06:30:48.457Z,15.47
2023-02-14T06:33:17.015Z,16.30
2023-02-14T06:35:45.524Z,16.70
2023-02-14T06:38:14.086Z,17.27
2023-02-14T06:40:42.490Z,15.73
2023-02-14T06:43:10.947Z,16.77
2023-02-14T06:45:43.746Z,17.73
2023-02-14T06:48:12.264Z,15.60
2023-02-14T06:50:40.735Z,16.70
2023-02-14T06:53:09.186Z,16.63
2023-02-14T06:55:37.624Z,15.47
2023-02-14T06:58:06.080Z,16.10
2023-02-14T07:00:34.594Z,16.30
2023-02-14T07:03:04.632Z,16.63
2023-02-14T07:05:33.522Z,16.10
2023-02-14T07:08:02.324Z,17.00
2023-02-14T07:10:30.914Z,16.60
2023-02-14T07:12:59.341Z,16.57
2023-02-14T07:15:28.413Z,17.93
2023-02-14T07:17:56.913Z,16.67
2023-02-14T07:20:27.223Z,15.97
2023-02-14T07:22:55.759Z,16.57
2023-02-14T07:25:24.446Z,16.67
2023-02-14T07:27:52.892Z,16.20
2023-02-14T07:30:46.155Z,16.70
2023-02-14T07:33:14.822Z,15.37
2023-02-14T07:35:44.856Z,15.27
2023-02-14T07:38:13.362Z,15.70
2023-02-14T07:40:41.772Z,15.70
2023-02-14T07:43:10.549Z,15.37
2023-02-14T07:45:39.005Z,14.47
2023-02-14T07:48:08.646Z,14.33
2023-02-14T07:50:37.057Z,15.60
2023-02-14T07:53:08.668Z,15.27
2023-02-14T07:55:37.252Z,15.40
2023-02-14T07:58:05.749Z,15.73
2023-02-14T08:00:34.285Z,16.47
2023-02-14T08:03:02.783Z,15.87
2023-02-14T08:05:31.278Z,16.43
2023-02-14T08:07:59.752Z,13.90
2023-02-14T08:10:29.675Z,13.47
2023-02-14T08:12:59.704Z,14.77
2023-02-14T08:15:46.806Z,14.17
2023-02-14T08:18:15.940Z,13.03
2023-02-14T08:20:44.852Z,12.80
2023-02-14T08:23:13.679Z,12.57
2023-02-14T08:25:43.777Z,12.27
2023-02-14T08:28:13.761Z,13.10
2023-02-14T08:30:43.847Z,12.90
2023-02-14T08:33:31.131Z,12.40
2023-02-14T08:36:00.272Z,12.30
2023-02-14T08:38:28.781Z,13.70
2023-02-14T08:41:05.865Z,14.23
2023-02-14T08:43:36.184Z,12.23
2023-02-14T08:46:04.974Z,13.23
2023-02-14T08:48:33.656Z,13.50
2023-02-14T08:51:07.335Z,13.40
2023-02-14T08:53:36.166Z,13.20
2023-02-14T08:56:09.307Z,13.03
2023-02-14T08:58:38.551Z,13.07
2023-02-14T09:01:10.564Z,12.63
2023-02-14T09:03:39.637Z,12.17
2023-02-14T09:06:10.843Z,14.53
2023-02-14T09:08:40.699Z,13.07
2023-02-14T09:11:14.056Z,14.30
2023-02-14T09:14:07.022Z,14.27
2023-02-14T09:16:35.617Z,14.00
2023-02-14T09:19:29.224Z,14.77
2023-02-14T09:21:57.633Z,16.13
2023-02-14T09:24:27.263Z,15.10
2023-02-14T09:26:58.023Z,14.63
2023-02-14T09:29:26.975Z,15.30
2023-02-14T09:31:56.363Z,14.83
2023-02-14T09:34:42.434Z,13.97
2023-02-14T09:37:29.205Z,15.53
2023-02-14T09:39:57.720Z,15.43
2023-02-14T09:42:46.051Z,15.90
2023-02-14T09:45:40.841Z,15.53
2023-02-14T09:48:20.698Z,13.90
2023-02-14T09:50:54.356Z,14.57
2023-02-14T09:53:28.979Z,13.90
2023-02-14T09:56:07.674Z,14.80
2023-02-14T09:58:47.246Z,15.10
2023-02-14T10:01:59.052Z,13.17
2023-02-14T10:04:39.765Z,12.33
2023-02-14T10:07:20.360Z,11.53
2023-02-14T10:09:58.912Z,11.40
2023-02-14T10:12:34.208Z,10.67
2023-02-14T10:15:27.509Z,11.90
2023-02-14T10:18:02.096Z,10.27
2023-02-14T10:20:34.906Z,10.53
2023-02-14T10:23:32.800Z,11.37
2023-02-14T10:26:06.389Z,10.93
2023-02-14T10:28:41.461Z,11.50
2023-02-14T10:31:27.945Z,12.37
2023-02-14T10:34:02.854Z,12.20
2023-02-14T10:36:52.209Z,11.33
2023-02-14T10:39:57.558Z,10.77
2023-02-14T10:42:46.126Z,11.13
2023-02-14T10:45:23.978Z,11.07
2023-02-14T10:48:30.098Z,10.73
2023-02-14T10:51:34.369Z,10.67
2023-02-14T10:54:21.098Z,10.90
2023-02-14T10:57:00.020Z,10.90
2023-02-14T10:59:36.302Z,10.87
2023-02-14T11:02:07.478Z,9.77
2023-02-14T11:04:37.417Z,10.13
2023-02-14T11:07:12.899Z,10.53
2023-02-14T11:09:41.378Z,10.87
2023-02-14T11:12:10.504Z,10.70
2023-02-14T11:14:41.277Z,9.43
2023-02-14T11:17:29.917Z,8.93
2023-02-14T11:20:03.387Z,10.17
2023-02-14T11:22:33.482Z,9.63
2023-02-14T11:25:07.589Z,12.50
2023-02-14T11:27:37.863Z,14.80
2023-02-14T11:30:19.901Z,13.27
2023-02-14T11:32:56.048Z,23.83
2023-02-14T11:35:34.410Z,11.00
2023-02-14T11:38:06.587Z,9.47
2023-02-14T11:40:38.632Z,10.10
2023-02-14T11:43:30.294Z,10.50
2023-02-14T11:46:15.716Z,9.27
2023-02-14T11:48:59.563Z,9.30
2023-02-14T11:52:13.938Z,11.07
2023-02-14T11:55:01.475Z,9.87
2023-02-14T11:57:36.266Z,9.43
2023-02-14T12:00:15.875Z,9.10
2023-02-14T12:02:48.974Z,7.63
2023-02-14T12:05:22.376Z,8.30
2023-02-14T12:07:56.259Z,8.07
2023-02-14T12:10:29.244Z,7.50
2023-02-14T12:13:02.167Z,8.53
2023-02-14T12:15:41.352Z,8.70
2023-02-14T12:18:42.078Z,9.13
2023-02-14T12:21:32.469Z,8.40
2023-02-14T12:24:12.935Z,9.20
2023-02-14T12:27:21.162Z,8.77
2023-02-14T12:29:55.623Z,9.43
2023-02-14T12:32:51.495Z,8.23
2023-02-14T12:35:34.865Z,8.30
2023-02-14T12:38:17.106Z,9.27
2023-02-14T12:41:10.364Z,8.23
2023-02-14T12:43:50.820Z,8.77
2023-02-14T12:46:56.278Z,9.17
2023-02-14T12:50:09.776Z,9.03
2023-02-14T12:53:26.236Z,8.50
2023-02-14T12:56:32.432Z,8.53
2023-02-14T12:59:28.148Z,8.93
2023-02-14T13:03:01.880Z,8.57
2023-02-14T13:05:48.312Z,8.37
2023-02-14T13:09:01.233Z,8.30
2023-02-14T13:11:48.084Z,8.50
2023-02-14T13:14:46.625Z,8.40
2023-02-14T13:17:28.425Z,9.60
2023-02-14T13:20:07.316Z,9.47
2023-02-14T13:22:37.469Z,9.37
2023-02-14T13:25:36.021Z,9.27
2023-02-14T13:28:20.618Z,9.20
2023-02-14T13:30:49.497Z,10.23
2023-02-14T13:33:40.200Z,9.93
2023-02-14T13:36:13.035Z,10.10
2023-02-14T13:38:49.944Z,9.80
2023-02-14T13:41:20.570Z,9.57
2023-02-14T13:43:54.056Z,9.03
2023-02-14T13:46:53.619Z,8.87
2023-02-14T13:49:51.219Z,9.23
2023-02-14T13:52:47.042Z,9.90
2023-02-14T13:55:21.406Z,10.53
2023-02-14T13:58:04.225Z,9.57
2023-02-14T14:00:43.233Z,9.17
2023-02-14T14:03:17.367Z,10.47
2023-02-14T14:06:07.740Z,11.17
2023-02-14T14:08:48.887Z,10.50
2023-02-14T14:11:57.261Z,10.60
2023-02-14T14:14:37.947Z,10.57
2023-02-14T14:17:25.934Z,11.13
2023-02-14T14:20:40.629Z,9.70
2023-02-14T14:23:35.196Z,10.50
2023-02-14T14:26:24.987Z,10.90
2023-02-14T14:28:53.533Z,10.87
2023-02-14T14:31:22.726Z,10.47
2023-02-14T14:34:02.249Z,10.77
2023-02-14T14:36:30.841Z,11.03
2023-02-14T14:38:59.347Z,10.03
2023-02-14T14:41:31.336Z,9.10
2023-02-14T14:44:01.253Z,9.67
2023-02-14T14:46:29.925Z,10.13
2023-02-14T14:49:00.187Z,9.97
2023-02-14T14:51:33.433Z,10.90
2023-02-14T14:54:06.130Z,9.73
2023-02-14T14:56:39.732Z,11.13
2023-02-14T14:59:20.729Z,11.13
2023-02-14T15:01:51.409Z,13.33
2023-02-14T15:04:29.494Z,9.77
2023-02-14T15:07:18.282Z,11.23
2023-02-14T15:09:46.926Z,10.20
2023-02-14T15:12:42.688Z,9.00
2023-02-14T15:15:16.741Z,9.40
2023-02-14T15:17:46.893Z,8.27
2023-02-14T15:20:21.707Z,8.60
2023-02-14T15:22:54.097Z,9.90
2023-02-14T15:25:27.783Z,10.73
2023-02-14T15:27:57.340Z,11.23
2023-02-14T15:30:30.789Z,10.20
2023-02-14T15:33:01.580Z,9.43
2023-02-14T15:35:35.554Z,9.87
2023-02-14T15:38:08.135Z,9.00
2023-02-14T15:40:39.047Z,8.93
2023-02-14T15:43:25.067Z,9.10
2023-02-14T15:45:58.707Z,9.43
2023-02-14T15:48:33.441Z,9.60
2023-02-14T15:51:06.368Z,9.67
2023-02-14T15:53:44.100Z,9.30
2023-02-14T15:56:21.455Z,10.10
2023-02-14T15:58:50.969Z,8.73
2023-02-14T16:01:22.764Z,9.50
2023-02-14T16:03:57.447Z,10.80
2023-02-14T16:06:44.313Z,9.97
2023-02-14T16:09:27.293Z,8.67
2023-02-14T16:11:56.254Z,9.20
2023-02-14T16:14:33.160Z,8.60
2023-02-14T16:17:05.345Z,9.73
2023-02-14T16:19:41.632Z,9.93
2023-02-14T16:22:14.100Z,9.37
2023-02-14T16:24:42.550Z,9.87
2023-02-14T16:27:13.407Z,9.23
2023-02-14T16:29:41.983Z,9.80
2023-02-14T16:32:20.979Z,10.70
2023-02-14T16:34:50.125Z,10.90
2023-02-14T16:37:26.104Z,11.20
2023-02-14T16:39:57.847Z,10.27
2023-02-14T16:42:26.703Z,10.03
2023-02-14T16:44:56.051Z,10.00
2023-02-14T16:47:27.734Z,9.30
2023-02-14T16:49:56.354Z,10.10
2023-02-14T16:52:30.202Z,10.00
2023-02-14T16:54:59.288Z,9.90
2023-02-14T16:57:33.522Z,10.00
2023-02-14T17:00:02.682Z,11.53
2023-02-14T17:02:31.702Z,10.90
2023-02-14T17:05:00.328Z,12.10
2023-02-14T17:07:33.267Z,11.90
2023-02-14T17:10:07.014Z,10.50
2023-02-14T17:12:41.772Z,10.97
2023-02-14T17:15:16.235Z,12.13
2023-02-14T17:17:48.126Z,10.57
2023-02-14T17:20:19.822Z,11.63
2023-02-14T17:22:49.857Z,10.77
2023-02-14T17:25:18.564Z,12.53
2023-02-14T17:27:47.007Z,13.80
2023-02-14T17:30:16.892Z,13.93
2023-02-14T17:32:45.892Z,13.37
2023-02-14T17:35:15.938Z,12.23
2023-02-14T17:37:44.575Z,12.20
2023-02-14T17:40:15.629Z,13.17
2023-02-14T17:42:45.031Z,13.50
2023-02-14T17:45:13.996Z,12.07
2023-02-14T17:47:43.443Z,14.17
2023-02-14T17:50:13.161Z,13.10
2023-02-14T17:52:57.424Z,14.00
2023-02-14T17:55:27.252Z,13.00
2023-02-14T17:57:55.714Z,13.63
2023-02-14T18:00:25.514Z,18.00
2023-02-14T18:02:53.992Z,12.63
2023-02-14T18:05:22.426Z,12.07
2023-02-14T18:07:53.012Z,11.90
2023-02-14T18:10:21.767Z,12.37
2023-02-14T18:12:51.553Z,11.33
2023-02-14T18:15:20.830Z,12.20
2023-02-14T18:17:51.344Z,11.73
2023-02-14T18:20:23.377Z,11.40
2023-02-14T18:22:51.933Z,12.33
2023-02-14T18:25:20.437Z,11.60
2023-02-14T18:27:50.251Z,12.10
2023-02-14T18:30:19.242Z,11.80
2023-02-14T18:32:47.932Z,12.67
2023-02-14T18:35:16.562Z,13.90
2023-02-14T18:37:45.400Z,13.67
2023-02-14T18:40:20.160Z,12.67
2023-02-14T18:42:50.055Z,12.83
2023-02-14T18:45:18.751Z,13.27
2023-02-14T18:47:47.386Z,12.03
2023-02-14T18:50:15.872Z,13.23
2023-02-14T18:52:44.649Z,11.03
2023-02-14T18:55:13.500Z,11.90
2023-02-14T18:57:42.138Z,12.33
2023-02-14T19:00:14.546Z,11.83
2023-02-14T19:02:43.732Z,11.80
2023-02-14T19:05:12.616Z,12.30
2023-02-14T19:07:41.174Z,12.50
2023-02-14T19:10:11.780Z,12.90
2023-02-14T19:12:40.336Z,13.27
2023-02-14T19:15:11.232Z,15.47
2023-02-14T19:17:39.866Z,14.60
2023-02-14T19:20:09.932Z,16.63
2023-02-14T19:22:39.604Z,15.87
2023-02-14T19:25:09.546Z,15.37
2023-02-14T19:27:38.128Z,16.53
2023-02-14T19:30:08.521Z,17.13
2023-02-14T19:32:38.374Z,13.93
2023-02-14T19:35:07.897Z,16.27
2023-02-14T19:37:36.365Z,16.60
2023-02-14T19:40:06.502Z,16.70
2023-02-14T19:42:35.616Z,15.87
2023-02-14T19:45:04.331Z,14.87
2023-02-14T19:47:46.314Z,15.90
2023-02-14T19:50:17.697Z,16.47
2023-02-14T19:52:46.348Z,14.80
2023-02-14T19:55:23.527Z,16.00
2023-02-14T19:57:52.023Z,15.80
2023-02-14T20:00:21.792Z,16.57
2023-02-14T20:02:50.408Z,16.97
2023-02-14T20:05:22.900Z,16.60
2023-02-14T20:07:52.048Z,20.03
2023-02-14T20:10:20.888Z,19.10
2023-02-14T20:12:49.575Z,18.17
2023-02-14T20:15:18.259Z,20.70
2023-02-14T20:17:47.141Z,16.57
2023-02-14T20:20:16.661Z,17.33
2023-02-14T20:22:46.708Z,18.90
2023-02-14T20:25:15.212Z,17.93
2023-02-14T20:27:43.824Z,18.37
2023-02-14T20:30:14.442Z,18.17
2023-02-14T20:32:42.947Z,19.20
2023-02-14T20:35:11.595Z,19.67
2023-02-14T20:37:40.063Z,19.20
2023-02-14T20:40:12.572Z,18.67
2023-02-14T20:42:41.019Z,17.50
2023-02-14T20:45:10.024Z,19.83
2023-02-14T20:47:38.475Z,19.33
2023-02-14T20:50:08.692Z,18.00
2023-02-14T20:52:38.154Z,18.43
2023-02-14T20:55:07.457Z,20.80
2023-02-14T20:57:37.293Z,20.33
2023-02-14T21:00:08.736Z,20.07
2023-02-14T21:02:37.200Z,18.93
2023-02-14T21:05:06.678Z,19.27
2023-02-14T21:07:35.146Z,20.13
2023-02-14T21:10:03.788Z,18.97
2023-02-14T21:12:58.866Z,18.50
2023-02-14T21:15:27.609Z,19.67
2023-02-14T21:17:56.128Z,20.57
2023-02-14T21:20:24.669Z,20.73
2023-02-14T21:22:56.837Z,18.83
2023-02-14T21:25:26.731Z,19.67
2023-02-14T21:27:55.357Z,18.70
2023-02-14T21:30:25.330Z,18.57
2023-02-14T21:32:53.726Z,18.37
2023-02-14T21:35:22.201Z,19.57
2023-02-14T21:37:50.624Z,20.43
2023-02-14T21:40:19.755Z,20.53
2023-02-14T21:42:48.302Z,19.70
2023-02-14T21:45:34.634Z,19.93
2023-02-14T21:48:22.042Z,19.73
2023-02-14T21:50:50.588Z,21.50
2023-02-14T21:53:19.868Z,20.23
2023-02-14T21:55:48.360Z,21.40
2023-02-14T21:58:16.876Z,20.87
2023-02-14T22:00:48.039Z,21.70
2023-02-14T22:03:17.959Z,21.57
2023-02-14T22:05:46.548Z,26.10
2023-02-14T22:08:15.007Z,27.37
2023-02-14T22:10:43.449Z,25.53
2023-02-14T22:13:11.974Z,20.83
2023-02-14T22:15:41.345Z,24.30
2023-02-14T22:18:09.878Z,25.63
2023-02-14T22:20:40.100Z,26.13
2023-02-14T22:23:09.014Z,30.57
2023-02-14T22:25:37.568Z,30.10
2023-02-14T22:28:06.262Z,29.27
2023-02-14T22:30:34.849Z,31.63
2023-02-14T22:33:03.312Z,25.00
2023-02-14T22:35:32.115Z,26.30
2023-02-14T22:38:01.976Z,24.67
2023-02-14T22:40:30.673Z,24.77
2023-02-14T22:43:00.729Z,23.67
2023-02-14T22:45:29.225Z,25.77
2023-02-14T22:48:00.605Z,25.33
2023-02-14T22:50:29.085Z,24.53
2023-02-14T22:52:57.626Z,25.47
2023-02-14T22:55:27.476Z,26.73
2023-02-14T22:57:55.926Z,24.97
2023-02-14T23:00:25.348Z,25.33
2023-02-14T23:02:53.874Z,24.40
2023-02-14T23:05:22.368Z,24.00
2023-02-14T23:07:50.798Z,25.07
2023-02-14T23:10:19.519Z,23.03
2023-02-14T23:13:06.579Z,24.60
2023-02-14T23:15:52.635Z,24.23
2023-02-14T23:18:38.535Z,24.87
2023-02-14T23:21:32.021Z,23.80
2023-02-14T23:24:00.442Z,23.90
2023-02-14T23:26:28.965Z,24.00
2023-02-14T23:28:58.837Z,22.07
2023-02-14T23:31:27.524Z,24.17
2023-02-14T23:33:56.086Z,24.33
2023-02-14T23:36:25.114Z,24.10
2023-02-14T23:38:53.640Z,25.10
2023-02-14T23:41:39.534Z,24.03
2023-02-14T23:44:09.452Z,25.07
2023-02-14T23:47:05.327Z,24.40
2023-02-14T23:49:36.192Z,25.60
2023-02-14T23:52:07.562Z,24.07
2023-02-14T23:54:37.565Z,24.50
2023-02-14T23:57:07.560Z,23.50
2023-02-14T23:59:37.798Z,24.23
